createdAt,value
2022-12-03T00:04:03.270Z,40.13
2022-12-03T00:06:34.671Z,38.73
2022-12-03T00:09:03.064Z,34.83
2022-12-03T00:11:31.734Z,26.47
2022-12-03T00:13:59.803Z,42.73
2022-12-03T00:16:27.901Z,39.78
2022-12-03T00:24:11.005Z,32.70
2022-12-03T00:26:40.590Z,33.37
2022-12-03T00:31:47.540Z,30.13
2022-12-03T00:36:43.066Z,31.15
2022-12-03T00:39:12.472Z,31.37
2022-12-03T00:41:40.653Z,32.35
2022-12-03T00:54:02.775Z,22.65
2022-12-03T00:56:31.119Z,25.85
2022-12-03T00:58:59.338Z,32.13
2022-12-03T01:01:28.546Z,19.00
2022-12-03T01:03:56.618Z,14.65
2022-12-03T01:06:24.512Z,23.20
2022-12-03T01:08:53.094Z,28.17
2022-12-03T01:11:39.436Z,26.42
2022-12-03T01:14:17.579Z,20.40
2022-12-03T01:16:46.287Z,22.95
2022-12-03T01:19:18.039Z,23.92
2022-12-03T01:21:52.095Z,24.80
2022-12-03T01:24:20.744Z,21.02
2022-12-03T01:26:48.817Z,21.75
2022-12-03T01:29:16.726Z,22.48
2022-12-03T01:32:03.447Z,30.25
2022-12-03T01:34:31.542Z,20.58
2022-12-03T01:39:27.755Z,23.60
2022-12-03T01:41:58.847Z,25.08
2022-12-03T01:44:30.355Z,23.20
2022-12-03T01:47:02.858Z,24.48
2022-12-03T01:49:35.199Z,23.55
2022-12-03T01:52:04.018Z,26.63
2022-12-03T01:54:38.396Z,35.08
2022-12-03T01:57:26.392Z,24.48
2022-12-03T01:59:55.747Z,25.53
2022-12-03T02:02:30.526Z,23.27
2022-12-03T02:04:59.517Z,20.45
2022-12-03T02:07:30.065Z,21.45
2022-12-03T02:10:01.961Z,23.83
2022-12-03T02:12:33.257Z,22.60
2022-12-03T02:15:01.740Z,23.38
2022-12-03T02:17:34.670Z,20.35
2022-12-03T02:20:06.135Z,17.55
2022-12-03T02:22:53.751Z,22.35
2022-12-03T02:25:26.097Z,19.48
2022-12-03T02:27:55.433Z,28.63
2022-12-03T02:30:26.525Z,19.13
2022-12-03T02:32:58.377Z,18.77
2022-12-03T02:35:33.160Z,19.08
2022-12-03T02:38:19.824Z,23.23
2022-12-03T02:40:50.409Z,21.60
2022-12-03T02:43:18.828Z,25.33
2022-12-03T02:45:53.599Z,18.77
2022-12-03T02:48:30.055Z,24.80
2022-12-03T02:51:03.378Z,24.17
2022-12-03T02:53:41.646Z,22.15
2022-12-03T02:56:11.456Z,19.67
2022-12-03T02:58:41.787Z,21.08
2022-12-03T03:01:10.330Z,23.42
2022-12-03T03:03:38.948Z,21.38
2022-12-03T03:06:08.715Z,18.38
2022-12-03T03:08:39.141Z,24.10
2022-12-03T03:11:07.823Z,25.88
2022-12-03T03:13:36.724Z,27.30
2022-12-03T03:16:06.021Z,19.05
2022-12-03T03:18:34.934Z,22.77
2022-12-03T03:21:06.191Z,23.60
2022-12-03T03:23:34.416Z,21.60
2022-12-03T03:28:48.347Z,21.45
2022-12-03T03:31:22.115Z,23.08
2022-12-03T03:33:50.579Z,23.70
2022-12-03T03:36:19.242Z,18.30
2022-12-03T03:38:47.836Z,20.08
2022-12-03T03:41:16.414Z,29.48
2022-12-03T03:43:45.328Z,33.78
2022-12-03T03:46:15.012Z,24.98
2022-12-03T03:48:43.932Z,22.80
2022-12-03T03:51:13.632Z,18.65
2022-12-03T03:53:45.436Z,22.73
2022-12-03T03:56:17.268Z,16.65
2022-12-03T03:58:48.024Z,20.95
2022-12-03T04:01:17.142Z,20.02
2022-12-03T04:03:46.586Z,18.30
2022-12-03T04:06:14.545Z,22.17
2022-12-03T04:08:43.062Z,24.00
2022-12-03T04:11:29.813Z,25.08
2022-12-03T04:13:57.961Z,14.48
2022-12-03T04:18:55.299Z,22.48
2022-12-03T04:21:42.711Z,11.77
2022-12-03T04:24:16.590Z,29.38
2022-12-03T04:27:04.475Z,19.85
2022-12-03T04:29:32.782Z,24.80
2022-12-03T04:32:19.404Z,28.55
2022-12-03T04:35:05.631Z,16.40
2022-12-03T04:37:33.440Z,15.35
2022-12-03T04:40:01.921Z,22.50
2022-12-03T04:42:29.883Z,20.52
2022-12-03T04:44:58.833Z,18.77
2022-12-03T04:47:26.953Z,14.85
2022-12-03T04:49:56.964Z,14.48
2022-12-03T04:52:24.980Z,19.00
2022-12-03T04:54:52.864Z,21.17
2022-12-03T04:57:21.185Z,21.88
2022-12-03T04:59:48.949Z,19.48
2022-12-03T05:02:17.028Z,18.52
2022-12-03T05:04:45.180Z,24.95
2022-12-03T05:09:40.838Z,21.40
2022-12-03T05:14:37.754Z,19.40
2022-12-03T05:17:06.917Z,20.60
2022-12-03T05:19:54.657Z,20.65
2022-12-03T05:22:22.794Z,22.70
2022-12-03T05:24:50.406Z,24.20
2022-12-03T05:27:23.315Z,20.25
2022-12-03T05:29:52.355Z,24.88
2022-12-03T05:32:20.601Z,20.23
2022-12-03T05:37:15.831Z,17.38
2022-12-03T05:39:44.054Z,16.50
2022-12-03T05:42:31.745Z,15.23
2022-12-03T05:45:00.624Z,12.20
2022-12-03T05:47:29.753Z,15.48
2022-12-03T05:49:57.537Z,15.18
2022-12-03T05:52:25.088Z,15.82
2022-12-03T05:54:53.726Z,13.40
2022-12-03T05:57:22.610Z,14.50
2022-12-03T05:59:50.114Z,11.73
2022-12-03T06:02:20.327Z,15.43
2022-12-03T06:04:50.068Z,11.93
2022-12-03T06:07:17.908Z,12.55
2022-12-03T06:09:45.783Z,12.05
2022-12-03T06:12:15.003Z,14.48
2022-12-03T06:14:43.497Z,13.63
2022-12-03T06:17:11.650Z,17.15
2022-12-03T06:22:08.005Z,11.32
2022-12-03T06:24:36.032Z,5.93
2022-12-03T06:27:05.187Z,11.95
2022-12-03T06:29:33.966Z,14.00
2022-12-03T06:32:01.837Z,16.38
2022-12-03T06:34:29.973Z,11.98
2022-12-03T06:39:26.106Z,11.77
2022-12-03T06:41:54.080Z,14.13
2022-12-03T06:44:23.235Z,15.45
2022-12-03T06:46:51.451Z,15.93
2022-12-03T06:49:19.143Z,14.98
2022-12-03T06:51:47.190Z,13.68
2022-12-03T06:54:16.097Z,19.08
2022-12-03T06:56:45.564Z,17.63
2022-12-03T06:59:13.966Z,14.07
2022-12-03T07:01:42.000Z,19.02
2022-12-03T07:04:10.813Z,19.97
2022-12-03T07:06:39.636Z,20.10
2022-12-03T07:09:09.708Z,14.83
2022-12-03T07:14:11.707Z,14.90
2022-12-03T07:16:41.281Z,16.33
2022-12-03T07:19:10.581Z,15.87
2022-12-03T07:21:38.313Z,14.57
2022-12-03T07:24:09.342Z,16.80
2022-12-03T07:29:05.603Z,18.00
2022-12-03T07:31:33.798Z,18.40
2022-12-03T07:34:02.216Z,24.47
2022-12-03T07:41:28.096Z,22.33
2022-12-03T07:43:59.401Z,14.80
2022-12-03T07:46:28.417Z,11.03
2022-12-03T07:48:56.576Z,13.83
2022-12-03T07:51:28.910Z,16.27
2022-12-03T07:54:01.486Z,14.33
2022-12-03T07:58:57.089Z,16.65
2022-12-03T08:03:53.528Z,20.17
2022-12-03T08:06:21.976Z,21.77
2022-12-03T08:11:17.763Z,16.80
2022-12-03T08:13:47.565Z,22.20
2022-12-03T08:16:21.677Z,20.50
2022-12-03T08:18:51.119Z,25.93
2022-12-03T08:21:22.274Z,19.60
2022-12-03T08:23:50.300Z,23.17
2022-12-03T08:28:50.059Z,24.43
2022-12-03T08:31:21.160Z,26.63
2022-12-03T08:33:52.795Z,22.10
2022-12-03T08:36:29.962Z,19.80
2022-12-03T08:41:51.603Z,24.57
2022-12-03T08:44:39.645Z,22.67
2022-12-03T08:47:13.264Z,24.13
2022-12-03T08:49:41.878Z,28.53
2022-12-03T08:52:18.898Z,26.70
2022-12-03T08:57:32.288Z,22.90
2022-12-03T09:00:24.784Z,20.70
2022-12-03T09:02:55.207Z,25.10
2022-12-03T09:05:27.375Z,25.17
2022-12-03T09:07:55.389Z,18.87
2022-12-03T09:10:23.911Z,23.52
2022-12-03T09:12:51.928Z,20.53
2022-12-03T09:15:20.693Z,18.38
2022-12-03T09:17:55.366Z,24.50
2022-12-03T09:20:23.049Z,19.30
2022-12-03T09:22:51.256Z,25.92
2022-12-03T09:25:21.303Z,31.02
2022-12-03T09:27:50.161Z,24.27
2022-12-03T09:32:45.475Z,25.00
2022-12-03T09:35:14.502Z,27.23
2022-12-03T09:37:42.473Z,14.40
2022-12-03T09:40:11.011Z,21.45
2022-12-03T09:42:39.045Z,19.05
2022-12-03T09:47:45.056Z,21.23
2022-12-03T09:50:20.673Z,18.40
2022-12-03T09:52:51.040Z,22.13
2022-12-03T09:55:23.706Z,20.83
2022-12-03T09:57:56.649Z,22.05
2022-12-03T10:00:29.934Z,19.58
2022-12-03T10:03:01.522Z,17.35
2022-12-03T10:05:29.923Z,20.02
2022-12-03T10:08:05.458Z,17.80
2022-12-03T10:10:34.094Z,20.13
2022-12-03T10:13:03.788Z,13.55
2022-12-03T10:15:32.502Z,16.10
2022-12-03T10:18:21.361Z,13.98
2022-12-03T10:20:49.844Z,15.88
2022-12-03T10:23:26.408Z,17.30
2022-12-03T10:26:03.840Z,16.15
2022-12-03T10:28:43.484Z,14.35
2022-12-03T10:31:13.100Z,14.95
2022-12-03T10:33:47.515Z,9.95
2022-12-03T10:36:18.084Z,9.55
2022-12-03T10:38:47.801Z,9.60
2022-12-03T10:41:29.360Z,9.65
2022-12-03T10:44:12.992Z,12.90
2022-12-03T10:46:42.256Z,8.38
2022-12-03T10:49:18.538Z,10.27
2022-12-03T10:51:47.944Z,8.50
2022-12-03T10:54:22.537Z,11.10
2022-12-03T10:56:51.792Z,15.07
2022-12-03T10:59:34.239Z,13.43
2022-12-03T11:02:04.248Z,10.57
2022-12-03T11:04:36.671Z,13.07
2022-12-03T11:07:15.006Z,6.20
2022-12-03T11:09:49.464Z,8.98
2022-12-03T11:12:26.693Z,5.20
2022-12-03T11:14:55.268Z,11.68
2022-12-03T11:17:45.029Z,8.52
2022-12-03T11:20:25.071Z,5.97
2022-12-03T11:22:57.972Z,6.25
2022-12-03T11:25:29.669Z,6.43
2022-12-03T11:28:15.121Z,7.13
2022-12-03T11:30:51.029Z,5.53
2022-12-03T11:33:28.811Z,8.38
2022-12-03T11:36:05.992Z,4.50
2022-12-03T11:38:54.201Z,4.17
2022-12-03T11:41:29.734Z,4.28
2022-12-03T11:43:59.584Z,6.63
2022-12-03T11:46:45.953Z,6.50
2022-12-03T11:49:32.814Z,8.93
2022-12-03T11:52:11.680Z,3.70
2022-12-03T11:54:41.644Z,6.60
2022-12-03T11:57:29.000Z,4.43
2022-12-03T12:00:08.927Z,6.28
2022-12-03T12:02:43.684Z,7.13
2022-12-03T12:05:26.578Z,6.43
2022-12-03T12:07:55.924Z,3.47
2022-12-03T12:10:45.940Z,6.53
2022-12-03T12:13:32.620Z,6.00
2022-12-03T12:16:06.282Z,5.25
2022-12-03T12:18:45.325Z,3.38
2022-12-03T12:21:40.347Z,5.20
2022-12-03T12:24:40.925Z,6.28
2022-12-03T12:27:11.222Z,8.80
2022-12-03T12:29:42.050Z,4.18
2022-12-03T12:32:12.409Z,10.18
2022-12-03T12:34:45.352Z,7.95
2022-12-03T12:37:22.513Z,4.55
2022-12-03T12:39:55.051Z,6.00
2022-12-03T12:42:35.525Z,7.03
2022-12-03T12:45:14.534Z,6.63
2022-12-03T12:48:10.265Z,8.00
2022-12-03T12:50:41.371Z,5.80
2022-12-03T12:53:26.972Z,9.90
2022-12-03T12:56:00.023Z,5.78
2022-12-03T12:58:33.855Z,7.68
2022-12-03T13:01:06.691Z,7.65
2022-12-03T13:03:39.737Z,4.75
2022-12-03T13:06:16.274Z,4.68
2022-12-03T13:08:49.017Z,4.40
2022-12-03T13:11:28.746Z,7.68
2022-12-03T13:13:58.411Z,6.45
2022-12-03T13:16:32.853Z,5.88
2022-12-03T13:19:03.599Z,9.88
2022-12-03T13:21:43.247Z,12.05
2022-12-03T13:24:35.246Z,6.60
2022-12-03T13:27:21.644Z,7.65
2022-12-03T13:30:13.971Z,6.75
2022-12-03T13:32:43.656Z,3.53
2022-12-03T13:35:36.050Z,5.25
2022-12-03T13:38:17.127Z,6.88
2022-12-03T13:40:45.531Z,6.50
2022-12-03T13:43:18.780Z,6.13
2022-12-03T13:45:50.375Z,8.30
2022-12-03T13:48:29.249Z,6.65
2022-12-03T13:51:01.462Z,9.13
2022-12-03T13:53:38.744Z,7.35
2022-12-03T13:56:29.115Z,9.75
2022-12-03T13:59:00.398Z,11.25
2022-12-03T14:01:29.158Z,7.30
2022-12-03T14:03:57.515Z,8.50
2022-12-03T14:06:26.343Z,7.30
2022-12-03T14:08:55.450Z,7.28
2022-12-03T14:11:42.021Z,8.27
2022-12-03T14:14:09.862Z,9.82
2022-12-03T14:16:38.945Z,7.97
2022-12-03T14:19:08.809Z,6.90
2022-12-03T14:21:38.092Z,8.68
2022-12-03T14:24:06.858Z,8.40
2022-12-03T14:26:35.108Z,6.50
2022-12-03T14:31:40.836Z,8.98
2022-12-03T14:34:09.207Z,7.43
2022-12-03T14:39:04.641Z,5.72
2022-12-03T14:41:51.404Z,12.60
2022-12-03T14:44:21.952Z,9.02
2022-12-03T14:46:56.605Z,7.75
2022-12-03T14:49:25.374Z,9.15
2022-12-03T14:51:55.060Z,8.38
2022-12-03T14:54:23.317Z,6.63
2022-12-03T14:56:50.946Z,11.88
2022-12-03T14:59:27.234Z,10.25
2022-12-03T15:01:57.313Z,3.63
2022-12-03T15:04:25.480Z,5.43
2022-12-03T15:09:24.045Z,12.38
2022-12-03T15:11:52.681Z,7.38
2022-12-03T15:14:24.182Z,7.70
2022-12-03T15:16:53.947Z,8.77
2022-12-03T15:19:22.355Z,7.47
2022-12-03T15:24:18.302Z,3.60
2022-12-03T15:26:47.894Z,7.70
2022-12-03T15:29:16.770Z,8.95
2022-12-03T15:31:48.799Z,8.15
2022-12-03T15:34:22.617Z,7.05
2022-12-03T15:36:51.838Z,7.85
2022-12-03T15:42:10.237Z,10.20
2022-12-03T15:44:38.866Z,8.80
2022-12-03T15:47:07.914Z,5.47
2022-12-03T15:49:37.281Z,6.07
2022-12-03T15:52:06.586Z,7.80
2022-12-03T15:54:41.956Z,13.63
2022-12-03T15:57:13.887Z,8.65
2022-12-03T15:59:43.833Z,12.35
2022-12-03T16:02:15.172Z,8.82
2022-12-03T16:04:47.534Z,3.92
2022-12-03T16:07:16.041Z,15.32
2022-12-03T16:09:44.123Z,14.20
2022-12-03T16:12:12.486Z,9.80
2022-12-03T16:14:41.663Z,7.20
2022-12-03T16:17:11.817Z,14.30
2022-12-03T16:19:40.417Z,11.75
2022-12-03T16:22:08.472Z,8.05
2022-12-03T16:24:37.465Z,14.40
2022-12-03T16:27:06.486Z,6.25
2022-12-03T16:29:36.727Z,10.43
2022-12-03T16:32:04.714Z,11.55
2022-12-03T16:34:33.383Z,12.45
2022-12-03T16:37:02.746Z,9.38
2022-12-03T16:39:37.238Z,10.85
2022-12-03T16:42:10.357Z,11.65
2022-12-03T16:45:00.822Z,8.15
2022-12-03T16:47:33.887Z,13.07
2022-12-03T16:50:04.093Z,16.55
2022-12-03T16:52:32.105Z,15.25
2022-12-03T16:55:01.898Z,14.85
2022-12-03T16:57:33.731Z,10.05
2022-12-03T17:00:02.631Z,11.75
2022-12-03T17:02:32.953Z,7.15
2022-12-03T17:05:00.516Z,9.43
2022-12-03T17:07:28.510Z,13.80
2022-12-03T17:10:01.511Z,13.43
2022-12-03T17:13:00.674Z,12.65
2022-12-03T17:15:20.600Z,12.30
2022-12-03T17:20:19.138Z,11.10
2022-12-03T17:22:48.558Z,15.30
2022-12-03T17:25:17.225Z,14.35
2022-12-03T17:27:46.266Z,9.18
2022-12-03T17:30:14.279Z,13.95
2022-12-03T17:32:42.168Z,12.30
2022-12-03T17:35:10.731Z,12.02
2022-12-03T17:37:41.427Z,11.63
2022-12-03T17:40:16.428Z,10.65
2022-12-03T17:42:44.458Z,8.63
2022-12-03T17:45:12.815Z,10.25
2022-12-03T17:47:41.078Z,10.25
2022-12-03T17:52:38.315Z,11.10
2022-12-03T17:55:12.853Z,11.63
2022-12-03T18:00:28.422Z,12.52
2022-12-03T18:02:58.129Z,11.32
2022-12-03T18:05:26.238Z,37.45
2022-12-03T18:07:57.548Z,12.88
2022-12-03T18:10:27.740Z,12.32
2022-12-03T18:13:01.319Z,15.30
2022-12-03T18:15:31.222Z,12.00
2022-12-03T18:18:05.124Z,13.80
2022-12-03T18:20:35.877Z,9.43
2022-12-03T18:23:05.817Z,13.93
2022-12-03T18:28:08.574Z,14.52
2022-12-03T18:30:49.157Z,12.73
2022-12-03T18:33:23.520Z,10.68
2022-12-03T18:35:57.681Z,10.30
2022-12-03T18:38:29.646Z,14.50
2022-12-03T18:41:05.247Z,11.23
2022-12-03T18:43:36.575Z,12.90
2022-12-03T18:46:31.297Z,18.20
2022-12-03T18:49:01.763Z,11.45
2022-12-03T18:53:59.691Z,10.45
2022-12-03T18:56:31.458Z,13.32
2022-12-03T18:59:00.996Z,12.27
2022-12-03T19:01:28.893Z,13.05
2022-12-03T19:04:04.822Z,12.48
2022-12-03T19:06:33.445Z,13.75
2022-12-03T19:09:01.789Z,10.50
2022-12-03T19:11:34.258Z,14.40
2022-12-03T19:14:03.567Z,11.05
2022-12-03T19:16:53.060Z,10.57
2022-12-03T19:19:36.419Z,10.30
2022-12-03T19:22:04.535Z,12.85
2022-12-03T19:24:34.979Z,8.13
2022-12-03T19:27:03.039Z,11.15
2022-12-03T19:29:32.249Z,11.20
2022-12-03T19:32:01.653Z,10.43
2022-12-03T19:34:32.800Z,7.90
2022-12-03T19:37:02.325Z,8.63
2022-12-03T19:39:30.749Z,9.63
2022-12-03T19:41:59.270Z,6.40
2022-12-03T19:44:29.676Z,9.57
2022-12-03T19:47:01.238Z,9.70
2022-12-03T19:49:29.915Z,11.68
2022-12-03T19:52:00.134Z,8.23
2022-12-03T19:54:28.715Z,4.97
2022-12-03T19:56:56.872Z,5.82
2022-12-03T19:59:25.564Z,6.65
2022-12-03T20:01:54.043Z,7.90
2022-12-03T20:04:23.099Z,10.32
2022-12-03T20:06:51.041Z,6.72
2022-12-03T20:09:20.763Z,11.57
2022-12-03T20:11:51.238Z,10.40
2022-12-03T20:14:21.360Z,7.35
2022-12-03T20:16:50.802Z,6.32
2022-12-03T20:19:19.219Z,7.60
2022-12-03T20:21:50.758Z,8.05
2022-12-03T20:24:19.647Z,8.57
2022-12-03T20:30:16.289Z,6.90
2022-12-03T20:32:47.233Z,7.03
2022-12-03T20:35:15.494Z,9.02
2022-12-03T20:37:47.778Z,6.32
2022-12-03T20:40:17.101Z,6.93
2022-12-03T20:45:15.212Z,6.05
2022-12-03T20:47:45.174Z,7.68
2022-12-03T20:50:13.318Z,8.25
2022-12-03T20:52:57.667Z,7.45
2022-12-03T20:55:32.379Z,7.93
2022-12-03T20:58:01.905Z,8.70
2022-12-03T21:00:30.198Z,9.25
2022-12-03T21:05:25.518Z,7.70
2022-12-03T21:07:54.998Z,9.52
2022-12-03T21:10:44.839Z,11.65
2022-12-03T21:13:17.292Z,8.57
2022-12-03T21:15:48.536Z,12.65
2022-12-03T21:18:19.104Z,8.70
2022-12-03T21:20:47.963Z,5.70
2022-12-03T21:23:16.123Z,9.65
2022-12-03T21:25:45.364Z,8.50
2022-12-03T21:28:14.427Z,9.68
2022-12-03T21:30:42.557Z,7.57
2022-12-03T21:33:10.509Z,7.93
2022-12-03T21:35:39.978Z,9.45
2022-12-03T21:38:08.688Z,8.30
2022-12-03T21:40:37.704Z,7.53
2022-12-03T21:43:05.740Z,6.22
2022-12-03T21:45:34.915Z,8.48
2022-12-03T21:48:05.138Z,8.00
2022-12-03T21:50:36.845Z,7.57
2022-12-03T21:53:06.964Z,7.00
2022-12-03T21:55:35.085Z,9.13
2022-12-03T21:58:02.854Z,7.63
2022-12-03T22:00:33.059Z,10.32
2022-12-03T22:03:01.422Z,9.52
2022-12-03T22:05:31.784Z,9.00
2022-12-03T22:07:59.706Z,10.15
2022-12-03T22:10:28.945Z,9.40
2022-12-03T22:12:58.863Z,9.20
2022-12-03T22:15:27.850Z,9.13
2022-12-03T22:17:55.874Z,8.65
2022-12-03T22:20:24.058Z,8.88
2022-12-03T22:25:19.993Z,11.35
2022-12-03T22:27:49.155Z,8.77
2022-12-03T22:30:18.571Z,9.43
2022-12-03T22:32:46.992Z,10.32
2022-12-03T22:35:14.719Z,7.20
2022-12-03T22:37:42.454Z,9.00
2022-12-03T22:40:10.684Z,10.45
2022-12-03T22:42:38.726Z,11.70
2022-12-03T22:45:06.872Z,11.38
2022-12-03T22:47:35.072Z,7.85
2022-12-03T22:52:31.288Z,9.63
2022-12-03T22:54:58.720Z,7.68
2022-12-03T22:57:26.942Z,6.65
2022-12-03T23:02:23.176Z,6.65
2022-12-03T23:07:23.456Z,5.38
2022-12-03T23:09:51.804Z,5.78
2022-12-03T23:12:20.284Z,3.97
2022-12-03T23:14:53.695Z,7.38
2022-12-03T23:17:21.749Z,5.75
2022-12-03T23:19:49.795Z,5.75
2022-12-03T23:24:46.612Z,8.25
2022-12-03T23:27:14.682Z,5.68
2022-12-03T23:29:42.587Z,6.20
2022-12-03T23:32:10.151Z,7.82
2022-12-03T23:34:38.341Z,9.25
2022-12-03T23:37:06.044Z,7.30
2022-12-03T23:39:34.338Z,11.60
2022-12-03T23:42:02.363Z,8.48
2022-12-03T23:46:57.615Z,12.80
2022-12-03T23:49:26.413Z,12.05
2022-12-03T23:51:54.546Z,10.85
2022-12-03T23:56:50.291Z,14.77
2022-12-03T23:59:18.281Z,11.80
